Time;durP1;ratioP1;P1;durP2;ratioP2;P2;SDS_P1;SDS_P2;PMS_P1;PMS_P2;Temp;Humidity;BMP_temperature;BMP_pressure;BME280_temperature;BME280_humidity;BME280_pressure;Samples;Min_cycle;Max_cycle;Signal;HPM_P1;HPM_P2
2021/04/01 00:02:23;;;;;;;17.63;9.27;;;14.00;97.10;;;;;;5040707;28;20911;-60
2021/04/01 00:04:48;;;;;;;20.25;9.05;;;14.00;97.40;;;;;;5056600;28;20040;-60
2021/04/01 00:07:14;;;;;;;22.07;8.83;;;13.90;97.80;;;;;;5040204;28;20032;-60
2021/04/01 00:09:40;;;;;;;18.40;8.37;;;13.90;98.20;;;;;;5040401;28;20033;-60
2021/04/01 00:12:10;;;;;;;19.53;8.07;;;13.80;98.50;;;;;;5040214;28;20038;-61
2021/04/01 00:14:36;;;;;;;24.97;9.83;;;13.80;98.90;;;;;;5040307;28;20051;-61
2021/04/01 00:17:06;;;;;;;19.77;8.97;;;13.70;99.00;;;;;;5040858;28;20036;-61
2021/04/01 00:19:31;;;;;;;23.33;10.37;;;13.70;98.80;;;;;;5056150;28;20031;-62
2021/04/01 00:21:57;;;;;;;25.83;10.77;;;13.70;98.90;;;;;;5055664;28;20033;-61
2021/04/01 00:24:25;;;;;;;24.17;10.00;;;13.70;98.60;;;;;;5040742;28;20044;-61
2021/04/01 00:26:53;;;;;;;18.87;10.30;;;13.70;98.70;;;;;;5040167;28;20028;-61
2021/04/01 00:29:23;;;;;;;15.87;8.67;;;13.80;98.80;;;;;;5040047;28;20037;-61
2021/04/01 00:31:49;;;;;;;21.47;8.90;;;13.80;98.60;;;;;;5040345;28;20044;-61
2021/04/01 00:34:15;;;;;;;21.30;9.27;;;13.70;99.10;;;;;;5038798;28;20025;-61
2021/04/01 00:36:43;;;;;;;21.73;8.87;;;13.70;99.30;;;;;;5040602;28;20028;-60
2021/04/01 00:39:11;;;;;;;28.13;10.37;;;13.70;99.30;;;;;;5040170;28;20032;-61
2021/04/01 00:41:41;;;;;;;24.90;11.57;;;13.60;99.20;;;;;;5039687;28;20025;-61
2021/04/01 00:44:07;;;;;;;22.30;9.50;;;13.60;99.20;;;;;;5047028;28;20036;-61
2021/04/01 00:46:38;;;;;;;28.83;9.93;;;13.60;99.10;;;;;;5039876;28;20056;-60
2021/04/01 00:49:04;;;;;;;22.83;10.70;;;13.70;99.20;;;;;;5040099;28;20036;-61
2021/04/01 00:51:35;;;;;;;19.73;9.50;;;13.70;98.70;;;;;;5039838;28;20044;-60
2021/04/01 00:54:03;;;;;;;27.47;10.63;;;13.70;98.90;;;;;;5039976;28;20028;-61
2021/04/01 00:56:29;;;;;;;22.67;11.00;;;13.60;99.00;;;;;;5039966;28;20111;-62
2021/04/01 00:58:57;;;;;;;24.30;9.33;;;13.60;99.50;;;;;;5055333;28;20889;-60
2021/04/01 01:03:54;;;;;;;35.93;20.03;;;13.50;99.50;;;;;;5039791;28;20033;-61
2021/04/01 01:06:22;;;;;;;25.90;10.90;;;13.50;99.80;;;;;;5039769;28;20033;-61
2021/04/01 01:08:48;;;;;;;21.67;10.40;;;13.50;99.60;;;;;;5039706;28;20095;-61
2021/04/01 01:11:14;;;;;;;24.00;12.37;;;13.50;99.60;;;;;;5039795;28;20040;-61
2021/04/01 01:13:40;;;;;;;28.00;11.03;;;13.50;99.40;;;;;;5039989;28;20035;-61
2021/04/01 01:16:06;;;;;;;24.87;11.43;;;13.50;99.60;;;;;;5038683;28;20442;-61
2021/04/01 01:18:32;;;;;;;19.43;10.00;;;13.40;99.90;;;;;;5039054;28;20412;-62
2021/04/01 01:20:59;;;;;;;24.53;10.83;;;13.40;99.90;;;;;;5040091;28;20079;-61
2021/04/01 01:23:26;;;;;;;22.50;10.30;;;13.50;99.90;;;;;;5037531;28;20040;-61
2021/04/01 01:25:56;;;;;;;26.17;11.70;;;13.40;99.80;;;;;;5039396;28;20032;-60
2021/04/01 01:28:27;;;;;;;21.40;9.90;;;13.40;99.90;;;;;;5037949;28;20033;-61
2021/04/01 01:30:53;;;;;;;27.43;10.70;;;13.40;99.90;;;;;;5039035;28;20037;-62
2021/04/01 01:33:22;;;;;;;23.73;10.90;;;13.30;99.90;;;;;;5039905;28;20102;-61
2021/04/01 01:35:50;;;;;;;50.27;26.30;;;13.40;99.90;;;;;;5039485;28;20029;-60
2021/04/01 01:38:16;;;;;;;34.40;17.33;;;13.40;99.90;;;;;;5038161;28;20079;-61
2021/04/01 01:40:42;;;;;;;25.50;12.00;;;13.40;99.90;;;;;;5039273;28;21936;-61
2021/04/01 01:43:11;;;;;;;24.10;11.97;;;13.50;99.90;;;;;;5036309;28;20123;-61
2021/04/01 01:45:40;;;;;;;27.30;11.50;;;13.50;99.90;;;;;;5039489;28;20048;-62
2021/04/01 01:48:07;;;;;;;33.90;14.47;;;13.40;99.90;;;;;;5039337;28;20040;-64
2021/04/01 01:50:34;;;;;;;34.97;21.10;;;13.40;99.90;;;;;;5039420;28;20064;-61
2021/04/01 01:53:01;;;;;;;38.40;17.77;;;13.40;99.90;;;;;;5039171;28;20033;-61
2021/04/01 01:55:30;;;;;;;35.37;18.27;;;13.40;99.90;;;;;;5039376;28;20492;-60
2021/04/01 01:57:58;;;;;;;29.00;13.93;;;13.40;99.90;;;;;;5055033;28;20033;-60
2021/04/01 02:00:33;;;;;;;48.23;26.03;;;13.40;99.90;;;;;;5039084;28;20495;-60
2021/04/01 02:03:01;;;;;;;33.17;13.30;;;13.30;99.90;;;;;;5038579;28;20108;-61
2021/04/01 02:05:29;;;;;;;24.17;12.27;;;13.30;99.90;;;;;;5038874;28;20029;-61
2021/04/01 02:07:57;;;;;;;25.73;12.33;;;13.30;99.90;;;;;;5039488;28;20464;-61
2021/04/01 02:10:28;;;;;;;27.50;12.13;;;13.20;99.90;;;;;;5038628;28;20091;-61
2021/04/01 02:12:57;;;;;;;22.83;11.23;;;13.20;99.90;;;;;;5038767;28;20025;-61
2021/04/01 02:15:26;;;;;;;25.87;12.40;;;13.20;99.90;;;;;;5039353;28;20025;-61
2021/04/01 02:18:11;;;;;;;31.83;12.73;;;13.10;99.90;;;;;;5038297;28;20021;-61
2021/04/01 02:20:42;;;;;;;35.17;12.57;;;13.10;99.90;;;;;;5038729;28;20104;-60
2021/04/01 02:23:29;;;;;;;37.97;13.53;;;13.10;99.90;;;;;;5038977;28;20029;-60
2021/04/01 02:25:58;;;;;;;28.73;14.10;;;13.00;99.90;;;;;;5039596;28;20028;-61
2021/04/01 02:28:29;;;;;;;28.23;12.70;;;13.10;99.90;;;;;;5040174;28;20106;-61
2021/04/01 02:30:57;;;;;;;24.37;13.20;;;13.10;99.90;;;;;;5038858;28;20047;-60
2021/04/01 02:33:28;;;;;;;46.10;20.50;;;13.10;99.90;;;;;;5039105;28;20025;-60
2021/04/01 02:35:55;;;;;;;31.57;14.70;;;13.10;99.90;;;;;;5040497;28;20108;-61
2021/04/01 02:38:21;;;;;;;28.90;14.33;;;13.10;99.90;;;;;;5042677;28;20029;-61
2021/04/01 02:40:47;;;;;;;27.67;14.10;;;13.10;99.90;;;;;;5039520;28;20680;-61
2021/04/01 02:43:19;;;;;;;35.30;14.43;;;13.10;99.90;;;;;;5057752;28;20068;-62
2021/04/01 02:45:47;;;;;;;31.17;15.17;;;13.10;99.90;;;;;;5041972;28;20036;-61
2021/04/01 02:48:12;;;;;;;25.73;13.67;;;13.00;99.90;;;;;;5039434;28;20060;-62
2021/04/01 02:50:38;;;;;;;32.27;14.97;;;13.10;99.90;;;;;;5042800;28;20458;-61
2021/04/01 02:53:04;;;;;;;35.70;14.90;;;13.00;99.90;;;;;;5049114;28;20489;-61
2021/04/01 02:55:29;;;;;;;30.77;15.10;;;12.90;99.90;;;;;;5042128;28;20119;-61
2021/04/01 02:57:55;;;;;;;32.57;14.03;;;12.90;99.90;;;;;;5042106;28;20536;-61
2021/04/01 03:00:28;;;;;;;32.47;14.77;;;12.80;99.90;;;;;;5041815;28;20384;-60
2021/04/01 03:02:57;;;;;;;38.03;15.13;;;12.80;99.90;;;;;;5042215;28;20083;-60
2021/04/01 03:05:22;;;;;;;28.27;14.23;;;12.80;99.90;;;;;;5041904;28;20029;-61
2021/04/01 03:07:48;;;;;;;36.33;15.40;;;12.80;99.90;;;;;;5042031;28;20059;-61
2021/04/01 03:10:14;;;;;;;34.60;15.23;;;12.80;99.90;;;;;;5041374;28;20102;-61
2021/04/01 03:12:40;;;;;;;42.37;16.70;;;12.90;99.90;;;;;;5041673;28;20028;-61
2021/04/01 03:15:11;;;;;;;32.47;15.53;;;12.80;99.90;;;;;;5041902;28;20056;-60
2021/04/01 03:17:43;;;;;;;30.80;15.73;;;12.90;99.90;;;;;;5042351;28;20033;-61
2021/04/01 03:20:10;;;;;;;32.27;16.03;;;12.80;99.90;;;;;;5041658;28;20361;-60
2021/04/01 03:22:37;;;;;;;30.07;14.50;;;12.80;99.90;;;;;;5041739;28;20055;-61
2021/04/01 03:25:05;;;;;;;34.80;15.53;;;12.80;99.90;;;;;;5041911;28;20512;-61
2021/04/01 03:27:33;;;;;;;30.73;16.27;;;12.80;99.90;;;;;;5030558;28;20843;-61
2021/04/01 03:30:09;;;;;;;34.23;17.03;;;12.80;99.90;;;;;;5040255;28;20060;-60
2021/04/01 03:32:40;;;;;;;30.60;15.23;;;12.80;99.90;;;;;;5041827;28;20029;-60
2021/04/01 03:35:12;;;;;;;30.13;15.27;;;12.90;99.90;;;;;;5040253;28;20025;-60
2021/04/01 03:37:38;;;;;;;33.63;17.60;;;12.90;99.90;;;;;;5041359;28;20029;-60
2021/04/01 03:40:08;;;;;;;29.50;16.40;;;12.90;99.90;;;;;;5041207;28;20025;-61
2021/04/01 03:42:38;;;;;;;35.00;17.60;;;12.90;99.90;;;;;;5041345;28;20039;-61
2021/04/01 03:45:09;;;;;;;32.20;14.80;;;12.90;99.90;;;;;;5031748;28;20036;-61
2021/04/01 03:47:38;;;;;;;28.80;14.33;;;12.90;99.90;;;;;;5056345;28;20037;-61
2021/04/01 03:50:05;;;;;;;28.93;16.60;;;12.80;99.90;;;;;;5040653;28;20029;-61
2021/04/01 03:52:33;;;;;;;36.07;17.77;;;12.80;99.90;;;;;;5037460;28;20116;-60
2021/04/01 03:55:08;;;;;;;29.27;17.07;;;12.80;99.90;;;;;;5038052;28;20040;-61
2021/04/01 03:57:37;;;;;;;33.10;15.87;;;12.80;99.90;;;;;;5041219;28;20023;-61
2021/04/01 04:00:13;;;;;;;30.53;15.40;;;12.80;99.90;;;;;;5040490;28;20444;-60
2021/04/01 04:15:36;;;;;;;41.77;22.67;;;12.90;99.90;;;;;;5040979;28;20063;-61
2021/04/01 04:18:04;;;;;;;31.53;16.47;;;12.80;99.90;;;;;;5039718;28;20040;-61
2021/04/01 04:20:30;;;;;;;28.10;17.43;;;12.90;99.90;;;;;;5040822;28;20614;-61
2021/04/01 04:22:56;;;;;;;29.70;16.60;;;12.90;99.90;;;;;;5040265;28;20123;-61
2021/04/01 04:25:23;;;;;;;41.07;17.37;;;12.90;99.90;;;;;;5040298;28;20033;-61
2021/04/01 04:28:05;;;;;;;32.77;16.53;;;12.90;99.90;;;;;;5039843;28;20078;-61
2021/04/01 04:30:33;;;;;;;31.27;16.37;;;12.80;99.90;;;;;;5040701;28;20079;-61
2021/04/01 04:32:58;;;;;;;30.43;15.90;;;12.80;99.90;;;;;;5038804;28;20057;-61
2021/04/01 04:35:27;;;;;;;30.60;16.00;;;12.70;99.90;;;;;;5040317;28;20111;-61
2021/04/01 04:37:53;;;;;;;41.80;23.47;;;12.70;99.90;;;;;;5040263;28;20029;-61
2021/04/01 04:40:18;;;;;;;36.73;17.47;;;12.80;99.90;;;;;;5040076;28;20415;-61
2021/04/01 04:42:44;;;;;;;32.63;15.77;;;12.80;99.90;;;;;;5040106;28;20021;-61
2021/04/01 04:45:10;;;;;;;35.83;15.70;;;12.90;99.90;;;;;;5040178;28;20745;-61
2021/04/01 04:47:39;;;;;;;38.97;19.87;;;12.90;99.90;;;;;;5055681;28;20028;-61
2021/04/01 04:50:06;;;;;;;28.60;16.33;;;12.90;99.90;;;;;;5055071;28;20037;-60
2021/04/01 04:52:34;;;;;;;31.30;17.30;;;12.90;99.90;;;;;;5039723;28;20060;-61
2021/04/01 04:55:03;;;;;;;43.27;21.50;;;12.90;99.90;;;;;;5038744;28;20429;-61
2021/04/01 05:05:07;;;;;;;37.07;18.37;;;13.20;99.90;;;;;;5039672;28;20500;-61
2021/04/01 05:07:35;;;;;;;34.67;16.57;;;13.20;99.90;;;;;;5055022;28;20099;-61
2021/04/01 05:10:04;;;;;;;39.60;16.13;;;13.20;99.90;;;;;;5039246;28;20024;-61
2021/04/01 05:12:32;;;;;;;38.90;17.87;;;13.10;99.90;;;;;;5039742;28;20033;-61
2021/04/01 05:14:57;;;;;;;32.73;16.07;;;13.10;99.90;;;;;;5039445;28;20032;-61
2021/04/01 05:17:25;;;;;;;27.67;16.27;;;13.00;99.90;;;;;;5029477;28;22147;-61
2021/04/01 05:19:57;;;;;;;34.00;15.43;;;12.90;99.90;;;;;;5039358;28;20067;-61
2021/04/01 05:22:34;;;;;;;38.50;16.65;;;12.90;99.90;;;;;;5039715;28;20947;-61
2021/04/01 05:25:03;;;;;;;36.33;16.27;;;12.90;99.90;;;;;;5039774;28;20110;-60
2021/04/01 05:27:46;;;;;;;31.17;15.17;;;12.80;99.90;;;;;;5028516;28;20033;-60
2021/04/01 05:30:16;;;;;;;32.00;15.67;;;12.80;99.90;;;;;;5039347;28;20048;-62
2021/04/01 05:32:45;;;;;;;33.17;16.57;;;12.80;99.90;;;;;;5039731;28;20156;-61
2021/04/01 05:35:16;;;;;;;35.93;19.10;;;12.70;99.90;;;;;;5039052;28;20439;-61
2021/04/01 05:37:43;;;;;;;37.92;16.60;;;12.80;99.90;;;;;;5039687;28;20071;-61
2021/04/01 05:40:11;;;;;;;33.60;16.43;;;12.80;99.90;;;;;;5039884;28;20033;-61
2021/04/01 05:42:41;;;;;;;33.83;17.37;;;12.80;99.90;;;;;;5038366;28;20361;-61
2021/04/01 05:47:57;;;;;;;38.75;17.10;;;12.80;99.90;;;;;;5039117;28;20095;-62
2021/04/01 06:04:39;;;;;;;33.60;16.20;;;12.90;99.90;;;;;;5038660;28;20052;-63
2021/04/01 06:07:14;;;;;;;30.42;16.20;;;12.90;99.90;;;;;;5038840;28;20879;-62
2021/04/01 06:09:45;;;;;;;32.20;15.53;;;12.80;99.90;;;;;;5031065;28;20519;-62
2021/04/01 06:12:14;;;;;;;33.30;17.43;;;12.80;99.90;;;;;;5042441;28;20075;-62
2021/04/01 06:15:04;;;;;;;25.67;15.50;;;12.80;99.90;;;;;;5042676;28;20170;-61
2021/04/01 06:17:35;;;;;;;37.47;15.73;;;12.80;99.90;;;;;;5058146;28;20039;-62
2021/04/01 06:20:06;;;;;;;32.17;15.73;;;12.80;99.90;;;;;;5031595;28;20130;-61
2021/04/01 06:22:32;;;;;;;38.42;16.58;;;12.90;99.90;;;;;;5041852;28;20060;-62
2021/04/01 06:25:01;;;;;;;39.57;17.00;;;12.90;99.90;;;;;;5041926;28;20140;-61
2021/04/01 06:27:40;;;;;;;47.60;17.90;;;12.90;99.90;;;;;;5043283;28;20029;-62
2021/04/01 06:30:26;;;;;;;46.63;19.03;;;12.90;99.90;;;;;;5042374;28;20037;-62
2021/04/01 06:33:01;;;;;;;38.97;18.30;;;13.00;99.90;;;;;;5042315;28;20082;-61
2021/04/01 06:40:49;;;;;;;31.03;16.20;;;13.30;99.90;;;;;;5042310;28;20025;-61
2021/04/01 06:43:17;;;;;;;46.80;17.43;;;13.30;99.90;;;;;;5037769;28;20037;-61
2021/04/01 06:45:54;;;;;;;41.70;16.83;;;13.30;99.90;;;;;;5057776;28;20094;-60
2021/04/01 06:48:26;;;;;;;52.20;17.57;;;13.30;99.90;;;;;;5042107;28;20037;-61
2021/04/01 06:51:08;;;;;;;38.40;16.40;;;13.40;99.90;;;;;;5042313;28;20079;-61
2021/04/01 06:54:01;;;;;;;42.17;16.73;;;13.50;99.90;;;;;;5041732;28;20052;-61
2021/04/01 06:56:33;;;;;;;32.57;16.23;;;13.60;99.90;;;;;;5041722;28;20399;-61
2021/04/01 06:59:24;;;;;;;35.97;16.30;;;13.70;99.90;;;;;;5041006;28;20611;-61
2021/04/01 07:04:30;;;;;;;44.07;16.80;;;14.00;99.90;;;;;;5042719;28;20036;-61
2021/04/01 07:07:07;;;;;;;30.97;16.03;;;14.00;99.80;;;;;;5048518;28;20036;-60
2021/04/01 07:12:26;;;;;;;32.10;16.27;;;14.10;99.40;;;;;;5040772;28;20062;-60
2021/04/01 07:15:07;;;;;;;45.33;19.00;;;14.30;98.70;;;;;;5041495;28;20469;-62
2021/04/01 07:17:43;;;;;;;33.93;19.07;;;14.50;98.40;;;;;;5041566;28;20496;-60
2021/04/01 07:32:16;;;;;;;38.80;20.33;;;15.20;95.90;;;;;;5041536;28;20059;-61
2021/04/01 07:49:03;;;;;;;53.37;25.40;;;15.70;92.10;;;;;;5041531;28;20103;-60
2021/04/01 07:54:15;;;;;;;56.97;27.53;;;15.60;92.10;;;;;;5041309;28;20044;-61
2021/04/01 07:56:58;;;;;;;61.93;27.83;;;15.70;91.40;;;;;;5038673;28;20076;-60
2021/04/01 08:02:10;;;;;;;57.67;31.08;;;16.00;91.30;;;;;;5040195;28;21920;-60
2021/04/01 08:04:44;;;;;;;62.87;34.17;;;16.20;86.80;;;;;;5041044;28;20043;-61
2021/04/01 08:07:14;;;;;;;66.50;34.67;;;16.40;85.40;;;;;;5040398;28;20040;-61
2021/04/01 08:09:48;;;;;;;67.93;33.97;;;16.50;81.10;;;;;;5040283;28;20028;-60
2021/04/01 08:12:21;;;;;;;79.27;37.87;;;16.60;80.10;;;;;;5040580;28;20033;-61
2021/04/01 08:14:57;;;;;;;77.37;36.13;;;16.70;78.00;;;;;;5040640;28;21879;-61
2021/04/01 08:17:28;;;;;;;79.63;36.67;;;16.70;77.50;;;;;;5039722;28;21776;-60
2021/04/01 08:20:00;;;;;;;78.33;37.60;;;16.80;78.30;;;;;;5040160;28;20040;-61
2021/04/01 08:22:30;;;;;;;;;;;16.90;77.10;;;;;;5056492;28;20933;-61
2021/04/01 08:25:03;;;;;;;84.80;36.87;;;17.00;77.10;;;;;;5041104;28;19913;-61
2021/04/01 08:35:25;;;;;;;87.57;37.50;;;17.50;71.80;;;;;;5040347;28;20052;-61
2021/04/01 08:38:13;;;;;;;75.33;38.73;;;17.50;72.00;;;;;;5033181;28;20040;-61
2021/04/01 08:40:43;;;;;;;81.80;38.37;;;17.60;71.40;;;;;;5040128;28;20029;-61
2021/04/01 08:43:52;;;;;;;80.53;39.72;;;17.60;71.80;;;;;;5039634;28;20575;-61
2021/04/01 08:46:20;;;;;;;87.93;45.13;;;17.70;71.60;;;;;;5039863;28;20449;-60
2021/04/01 08:49:23;;;;;;;93.20;45.33;;;17.80;66.90;;;;;;5039836;28;20122;-61
2021/04/01 08:52:03;;;;;;;88.70;45.63;;;17.80;64.80;;;;;;5035696;28;20132;-61
2021/04/01 08:55:02;;;;;;;93.35;45.42;;;17.90;64.60;;;;;;5039953;28;20481;-61
2021/04/01 08:58:01;;;;;;;84.47;43.30;;;18.10;63.50;;;;;;5038084;28;20029;-60
2021/04/01 09:00:32;;;;;;;87.20;42.90;;;18.20;61.70;;;;;;5046705;28;20053;-61
2021/04/01 09:02:59;;;;;;;87.30;43.97;;;18.20;60.80;;;;;;5040679;28;20099;-61
2021/04/01 09:05:25;;;;;;;83.00;42.58;;;18.30;60.30;;;;;;5039592;28;20465;-61
2021/04/01 09:07:57;;;;;;;86.28;42.08;;;18.30;60.60;;;;;;5039585;28;20041;-61
2021/04/01 09:10:35;;;;;;;89.97;42.25;;;18.30;59.90;;;;;;5039856;28;20048;-62
2021/04/01 09:13:17;;;;;;;88.90;41.75;;;18.30;59.90;;;;;;5039976;28;20116;-61
2021/04/01 09:18:24;;;;;;;84.63;40.72;;;18.50;58.60;;;;;;5039512;28;20317;-61
2021/04/01 09:20:53;;;;;;;82.93;41.22;;;18.50;58.40;;;;;;5039716;28;20802;-61
2021/04/01 09:23:30;;;;;;;83.15;41.78;;;18.60;58.30;;;;;;5055662;28;20037;-61
2021/04/01 09:25:56;;;;;;;88.15;41.97;;;18.70;58.60;;;;;;5039632;28;20149;-62
2021/04/01 09:28:30;;;;;;;82.03;40.00;;;18.70;57.50;;;;;;5039689;28;20112;-62
2021/04/01 09:31:04;;;;;;;75.72;36.90;;;18.80;56.70;;;;;;5039697;28;21745;-62
2021/04/01 09:33:33;;;;;;;77.32;38.45;;;18.70;57.30;;;;;;5038680;28;20029;-61
2021/04/01 09:36:14;;;;;;;76.82;37.67;;;18.70;57.80;;;;;;5055613;28;20400;-63
2021/04/01 09:38:45;;;;;;;71.78;36.17;;;18.70;57.00;;;;;;5039972;28;20102;-62
2021/04/01 09:41:32;;;;;;;82.47;37.45;;;18.70;57.10;;;;;;5039265;28;20059;-62
2021/04/01 09:44:04;;;;;;;72.20;35.53;;;18.70;56.50;;;;;;5046505;28;20040;-60
2021/04/01 09:46:31;;;;;;;;;;;18.80;56.10;;;;;;5044076;28;20037;-61
2021/04/01 09:49:09;;;;;;;81.20;38.22;;;18.80;56.00;;;;;;5043360;28;20388;-60
2021/04/01 09:51:35;;;;;;;84.15;37.42;;;18.80;57.00;;;;;;5043127;28;20083;-60
2021/04/01 09:54:05;;;;;;;75.30;36.13;;;18.80;55.80;;;;;;5043528;28;20029;-60
2021/04/01 09:56:33;;;;;;;80.57;37.60;;;18.90;55.10;;;;;;5043535;28;20131;-60
2021/04/01 09:59:02;;;;;;;72.45;36.08;;;18.90;54.90;;;;;;5043181;28;20094;-61
2021/04/01 10:04:05;;;;;;;79.20;35.05;;;19.20;54.60;;;;;;5043059;28;20781;-60
2021/04/01 10:06:43;;;;;;;77.07;37.17;;;19.30;53.50;;;;;;5042947;28;20041;-61
2021/04/01 10:09:16;;;;;;;76.63;37.40;;;19.40;54.60;;;;;;5043020;28;20126;-61
2021/04/01 10:12:10;;;;;;;80.82;36.88;;;19.50;54.20;;;;;;5049730;28;20036;-61
2021/04/01 10:14:53;;;;;;;67.68;31.60;;;19.60;54.10;;;;;;5041120;28;20071;-60
2021/04/01 10:17:21;;;;;;;68.78;33.28;;;19.70;53.90;;;;;;5043117;28;20033;-61
2021/04/01 10:19:56;;;;;;;63.90;30.98;;;19.70;54.50;;;;;;5039738;28;20029;-60
2021/04/01 10:22:33;;;;;;;57.72;26.88;;;19.70;54.20;;;;;;5033597;28;20033;-60
2021/04/01 10:25:07;;;;;;;60.63;28.75;;;19.80;53.40;;;;;;5043069;28;20037;-61
2021/04/01 10:27:43;;;;;;;59.10;29.63;;;19.70;53.90;;;;;;5039022;28;20032;-61
2021/04/01 10:30:12;;;;;;;64.22;30.92;;;19.80;54.40;;;;;;5042864;28;20044;-60
2021/04/01 10:33:15;;;;;;;58.30;26.48;;;19.80;55.30;;;;;;5055988;28;20266;-60
2021/04/01 10:35:42;;;;;;;;;;;19.90;55.40;;;;;;4983739;28;20030;-61
2021/04/01 10:38:07;;;;;;;49.65;23.52;;;20.10;55.80;;;;;;5033914;28;19916;-62
2021/04/01 10:40:35;;;;;;;63.22;29.08;;;20.30;56.10;;;;;;5037396;28;20072;-60
2021/04/01 10:43:06;;;;;;;55.58;27.75;;;20.40;56.40;;;;;;5040296;28;20043;-61
2021/04/01 10:45:39;;;;;;;49.22;23.73;;;20.50;56.50;;;;;;5041416;28;20029;-60
2021/04/01 10:48:19;;;;;;;54.58;24.60;;;20.50;56.30;;;;;;5041107;28;20036;-60
2021/04/01 10:50:47;;;;;;;54.17;25.45;;;20.50;56.40;;;;;;5041863;28;20044;-60
2021/04/01 10:53:24;;;;;;;54.63;26.40;;;20.50;56.70;;;;;;5041431;28;20029;-60
2021/04/01 10:55:52;;;;;;;54.88;26.10;;;20.50;57.40;;;;;;5049410;28;20036;-60
2021/04/01 10:58:19;;;;;;;58.95;25.30;;;20.60;57.90;;;;;;5041574;28;20087;-61
2021/04/01 11:00:55;;;;;;;51.50;25.42;;;20.70;58.10;;;;;;5041676;28;20049;-61
2021/04/01 11:03:31;;;;;;;58.17;23.05;;;20.70;57.80;;;;;;5041789;28;20058;-61
2021/04/01 11:06:00;;;;;;;44.40;21.42;;;20.70;56.80;;;;;;5040985;28;20037;-60
2021/04/01 11:08:36;;;;;;;51.17;20.42;;;20.70;56.10;;;;;;5041644;28;20124;-61
2021/04/01 11:11:04;;;;;;;51.00;21.30;;;20.70;56.10;;;;;;5040167;28;20464;-60
2021/04/01 11:13:35;;;;;;;48.25;20.42;;;20.90;56.10;;;;;;5040393;28;20150;-60
2021/04/01 11:16:04;;;;;;;48.00;21.00;;;21.10;56.20;;;;;;5056712;28;20028;-60
2021/04/01 11:18:30;;;;;;;46.33;21.40;;;21.10;55.50;;;;;;5040549;28;20108;-61
2021/04/01 11:20:59;;;;;;;53.28;20.88;;;21.20;55.10;;;;;;5033751;28;20032;-61
2021/04/01 11:23:28;;;;;;;45.65;21.00;;;21.20;55.00;;;;;;5041862;28;20033;-62
2021/04/01 11:25:57;;;;;;;46.40;19.33;;;21.30;55.20;;;;;;5040887;28;20025;-60
2021/04/01 11:28:39;;;;;;;53.40;22.27;;;21.40;54.80;;;;;;5040801;28;20033;-60
2021/04/01 11:31:08;;;;;;;57.97;22.95;;;21.30;55.80;;;;;;5030704;28;20033;-61
2021/04/01 11:33:37;;;;;;;54.85;24.10;;;21.20;56.70;;;;;;5040586;28;20033;-61
2021/04/01 11:38:39;;;;;;;59.80;23.17;;;21.20;56.00;;;;;;5041074;28;20068;-60
2021/04/01 11:41:07;;;;;;;52.10;22.67;;;21.20;55.60;;;;;;5040495;28;20056;-60
2021/04/01 11:43:35;;;;;;;54.67;23.70;;;21.30;55.70;;;;;;5041001;28;20048;-61
2021/04/01 11:46:24;;;;;;;50.92;22.75;;;21.50;55.30;;;;;;5038714;28;20037;-60
2021/04/01 11:48:51;;;;;;;53.35;25.27;;;21.70;55.00;;;;;;5042897;28;20071;-61
2021/04/01 11:51:31;;;;;;;59.90;27.00;;;21.90;54.20;;;;;;5047714;28;20104;-61
2021/04/01 11:53:57;;;;;;;56.90;25.60;;;21.90;54.10;;;;;;5038047;28;20116;-61
2021/04/01 11:56:39;;;;;;;57.35;26.48;;;22.00;53.60;;;;;;5057469;28;20036;-60
2021/04/01 11:59:13;;;;;;;60.60;26.43;;;21.90;53.60;;;;;;5040374;28;20127;-61
2021/04/01 12:02:11;;;;;;;58.95;27.52;;;22.00;53.60;;;;;;5040959;28;20751;-60
2021/04/01 12:04:44;;;;;;;60.13;27.02;;;22.20;52.80;;;;;;5033214;28;20668;-62
2021/04/01 12:07:11;;;;;;;65.03;30.08;;;22.30;52.60;;;;;;5039638;28;20473;-61
2021/04/01 12:09:42;;;;;;;56.05;28.50;;;22.50;52.50;;;;;;5040587;28;20029;-60
2021/04/01 12:12:08;;;;;;;64.95;29.52;;;22.60;52.50;;;;;;5040416;28;20071;-62
2021/04/01 12:14:36;;;;;;;65.97;28.35;;;22.80;52.40;;;;;;5040228;28;20033;-61
2021/04/01 12:17:06;;;;;;;61.00;28.63;;;23.10;51.10;;;;;;5040323;28;20158;-61
2021/04/01 12:19:36;;;;;;;60.58;28.55;;;23.20;50.30;;;;;;5038679;28;20106;-61
2021/04/01 12:22:09;;;;;;;66.57;31.02;;;23.20;50.60;;;;;;5041118;28;20457;-62
2021/04/01 12:24:39;;;;;;;67.07;30.58;;;23.20;50.50;;;;;;5041325;28;20025;-61
2021/04/01 12:27:08;;;;;;;70.15;33.22;;;23.10;50.70;;;;;;5030989;28;20060;-62
2021/04/01 12:29:44;;;;;;;71.28;34.13;;;22.90;51.10;;;;;;5040393;28;20036;-61
2021/04/01 12:32:10;;;;;;;67.00;32.25;;;23.00;51.80;;;;;;5039917;28;20021;-61
2021/04/01 12:34:35;;;;;;;70.97;33.05;;;23.40;51.10;;;;;;5039184;28;20052;-60
2021/04/01 12:37:04;;;;;;;69.97;34.58;;;23.80;50.30;;;;;;5055874;28;20025;-60
2021/04/01 12:39:38;;;;;;;72.75;32.50;;;24.00;50.30;;;;;;5038832;28;20028;-60
2021/04/01 12:42:06;;;;;;;69.72;34.17;;;24.50;49.60;;;;;;5039855;28;20130;-60
2021/04/01 12:44:43;;;;;;;66.13;33.95;;;25.40;47.80;;;;;;5040244;28;20495;-60
2021/04/01 12:47:20;;;;;;;61.13;32.70;;;26.30;46.10;;;;;;5039698;28;20124;-60
2021/04/01 12:49:49;;;;;;;64.63;33.45;;;27.30;45.00;;;;;;5039526;28;20130;-61
2021/04/01 12:52:15;;;;;;;68.95;34.45;;;27.80;43.30;;;;;;5038948;28;20045;-61
2021/04/01 12:54:43;;;;;;;69.30;35.95;;;27.60;43.70;;;;;;5039007;28;20593;-61
2021/04/01 12:57:14;;;;;;;67.07;35.25;;;28.40;42.80;;;;;;5039786;28;20071;-60
2021/04/01 12:59:49;;;;;;;66.37;36.07;;;28.70;41.80;;;;;;5036229;28;20048;-61
2021/04/01 13:02:19;;;;;;;71.07;39.85;;;28.60;41.60;;;;;;5038066;28;20556;-61
2021/04/01 13:04:54;;;;;;;84.88;42.70;;;28.20;42.80;;;;;;5036160;28;20768;-62
2021/04/01 13:08:20;;;;;;;82.10;42.58;;;28.30;42.70;;;;;;5036271;28;20032;-62
2021/04/01 13:12:49;;;;;;;74.85;39.80;;;28.90;41.90;;;;;;5039433;28;20113;-61
2021/04/01 13:15:15;;;;;;;69.03;36.83;;;28.70;42.00;;;;;;5039518;28;20021;-61
2021/04/01 13:17:42;;;;;;;69.38;36.10;;;28.60;41.20;;;;;;5039080;28;20365;-61
2021/04/01 13:20:08;;;;;;;68.38;35.95;;;28.90;40.20;;;;;;5035475;28;20063;-60
2021/04/01 13:22:55;;;;;;;70.40;34.80;;;28.70;40.50;;;;;;5046580;28;21884;-61
2021/04/01 13:25:19;;;;;;;67.32;35.95;;;28.70;39.60;;;;;;5038358;28;20033;-61
2021/04/01 13:27:50;;;;;;;70.13;34.38;;;29.00;39.50;;;;;;5054675;28;20047;-61
2021/04/01 13:30:21;;;;;;;70.93;35.92;;;29.50;38.60;;;;;;5039483;28;20250;-61
2021/04/01 13:35:38;;;;;;;65.78;34.80;;;30.20;38.00;;;;;;5039564;28;20025;-60
2021/04/01 13:38:10;;;;;;;67.35;33.55;;;30.00;37.90;;;;;;5039314;28;20032;-61
2021/04/01 13:40:41;;;;;;;66.63;34.15;;;30.30;37.20;;;;;;5039079;28;20116;-61
2021/04/01 13:43:09;;;;;;;56.20;33.70;;;29.80;38.50;;;;;;5039606;28;20025;-62
2021/04/01 13:45:35;;;;;;;62.63;35.90;;;29.30;38.90;;;;;;5039247;28;20124;-61
2021/04/01 13:48:04;;;;;;;57.35;34.00;;;29.10;38.90;;;;;;5039040;28;20051;-60
2021/04/01 13:50:36;;;;;;;59.78;34.95;;;29.10;39.40;;;;;;5028732;28;20029;-61
2021/04/01 13:53:13;;;;;;;59.47;37.33;;;28.80;39.30;;;;;;5038768;28;20410;-61
2021/04/01 13:55:44;;;;;;;65.65;40.28;;;28.80;40.10;;;;;;5038206;28;20037;-60
2021/04/01 14:09:37;;;;;;;80.90;50.00;;;28.10;41.80;;;;;;5038733;28;20523;-61
2021/04/01 14:12:06;;;;;;;70.85;46.13;;;28.20;42.10;;;;;;5037535;28;20295;-60
2021/04/01 14:14:33;;;;;;;79.30;49.33;;;28.50;41.60;;;;;;5038848;28;20036;-61
2021/04/01 14:17:00;;;;;;;74.30;48.95;;;28.20;41.30;;;;;;5039572;28;20032;-61
2021/04/01 14:19:28;;;;;;;78.55;50.92;;;27.90;42.00;;;;;;5035531;28;20029;-61
2021/04/01 14:22:00;;;;;;;77.25;50.65;;;27.90;42.00;;;;;;5037881;28;20619;-61
2021/04/01 14:24:34;;;;;;;88.97;53.63;;;27.80;42.40;;;;;;5038788;28;20082;-61
2021/04/01 14:29:56;;;;;;;77.32;52.28;;;27.20;43.10;;;;;;5038927;28;20489;-60
2021/04/01 14:32:26;;;;;;;85.20;52.95;;;27.30;43.30;;;;;;5058069;28;20111;-61
2021/04/01 14:34:53;;;;;;;80.35;51.42;;;27.40;43.00;;;;;;5043041;28;20934;-61
2021/04/01 14:37:23;;;;;;;76.47;52.15;;;27.30;43.30;;;;;;5057666;28;20363;-61
2021/04/01 14:39:54;;;;;;;81.00;52.35;;;27.40;43.60;;;;;;5042321;28;20029;-61
2021/04/01 14:42:27;;;;;;;78.43;49.75;;;27.70;43.20;;;;;;5042360;28;20048;-61
2021/04/01 14:44:56;;;;;;;73.25;49.28;;;27.80;42.70;;;;;;5039840;28;20024;-60
2021/04/01 14:47:23;;;;;;;74.78;47.53;;;27.40;43.10;;;;;;5042475;28;20064;-61